Time;durP1;ratioP1;P1;durP2;ratioP2;P2;SDS_P1;SDS_P2;PMS_P1;PMS_P2;Temp;Humidity;BMP_temperature;BMP_pressure;BME280_temperature;BME280_humidity;BME280_pressure;Samples;Min_cycle;Max_cycle;Signal;HPM_P1;HPM_P2
2021/12/20 00:00:21;;;;;;;6.77;4.63;;;8.00;1.00;9.70;101334.00;;;;5009659;28;20827;-75
2021/12/20 00:02:53;;;;;;;4.10;3.70;;;8.00;1.00;9.60;101340.00;;;;5008257;28;20454;-75
2021/12/20 00:05:22;;;;;;;4.90;4.20;;;8.00;1.00;9.60;101341.00;;;;5012558;28;20605;-75
2021/12/20 00:07:51;;;;;;;4.70;3.53;;;8.00;1.00;9.60;101336.00;;;;5013727;28;20468;-76
2021/12/20 00:10:20;;;;;;;5.17;3.17;;;8.00;1.00;9.60;101316.00;;;;5009517;28;21490;-74
2021/12/20 00:12:52;;;;;;;4.13;3.20;;;8.00;1.00;9.50;101332.00;;;;5014544;28;20434;-75
2021/12/20 00:15:20;;;;;;;5.10;3.63;;;7.90;1.00;9.40;101319.00;;;;4998753;28;21115;-75
2021/12/20 00:17:49;;;;;;;4.90;3.80;;;7.90;1.00;9.40;101330.00;;;;5010530;28;21112;-76
2021/12/20 00:20:21;;;;;;;4.90;3.47;;;7.90;1.00;9.30;101300.00;;;;5028085;28;20469;-75
2021/12/20 00:22:49;;;;;;;4.30;3.07;;;7.90;1.00;9.30;101325.00;;;;5001461;28;20466;-74
2021/12/20 00:25:18;;;;;;;6.10;2.83;;;7.80;1.00;9.30;101296.00;;;;5010183;28;20504;-75
2021/12/20 00:27:46;;;;;;;5.97;3.00;;;7.90;1.00;9.30;101317.00;;;;5012416;28;21176;-75
2021/12/20 00:30:17;;;;;;;5.60;3.37;;;7.90;1.00;9.20;101312.00;;;;5010216;28;20479;-74
2021/12/20 00:32:45;;;;;;;4.00;2.60;;;7.90;1.00;9.20;101323.00;;;;4995076;28;20442;-75
2021/12/20 00:35:13;;;;;;;3.70;2.83;;;7.90;1.00;9.20;101308.00;;;;5012305;28;20465;-74
2021/12/20 00:40:27;;;;;;;3.60;2.13;;;7.90;1.00;9.10;101314.00;;;;5014885;28;20441;-73
2021/12/20 00:43:00;;;;;;;3.50;2.60;;;7.90;1.00;9.10;101316.00;;;;5013684;28;20824;-74
2021/12/20 00:45:33;;;;;;;3.40;2.27;;;7.90;1.00;9.10;101309.00;;;;4998530;28;20490;-74
2021/12/20 00:48:03;;;;;;;3.43;2.57;;;7.90;1.00;9.10;101308.00;;;;5011299;28;20458;-74
2021/12/20 00:50:38;;;;;;;3.30;2.60;;;7.90;1.00;9.10;101306.00;;;;5013399;28;20829;-76
2021/12/20 00:53:07;;;;;;;2.60;2.13;;;7.80;1.00;9.10;101307.00;;;;5015398;28;20450;-74
2021/12/20 00:55:36;;;;;;;4.73;2.30;;;7.90;1.00;9.20;101313.00;;;;5013888;28;20491;-74
2021/12/20 00:58:05;;;;;;;4.80;2.30;;;7.90;1.00;9.20;101327.00;;;;5014122;28;20450;-75
2021/12/20 01:00:39;;;;;;;3.27;2.43;;;7.80;1.00;9.20;101294.00;;;;5024383;28;20463;-75
2021/12/20 01:03:09;;;;;;;4.07;2.70;;;7.90;1.00;9.20;101294.00;;;;5012897;28;20918;-74
2021/12/20 01:05:39;;;;;;;3.90;2.70;;;7.90;1.00;9.20;101307.00;;;;5006991;28;20486;-74
2021/12/20 01:08:09;;;;;;;5.20;2.70;;;7.90;1.00;9.20;101305.00;;;;5013208;28;20458;-75
2021/12/20 01:10:44;;;;;;;5.17;2.80;;;7.90;1.00;9.20;101291.00;;;;5013704;28;20466;-74
2021/12/20 01:13:13;;;;;;;3.60;2.10;;;7.90;1.00;9.10;101292.00;;;;5012407;28;20465;-73
2021/12/20 01:15:48;;;;;;;7.20;2.70;;;7.80;1.00;9.10;101284.00;;;;5014733;28;20472;-74
2021/12/20 01:18:17;;;;;;;3.23;2.33;;;7.80;1.00;9.10;101309.00;;;;5001251;28;20982;-73
2021/12/20 01:20:46;;;;;;;3.50;2.83;;;7.80;1.00;9.10;101316.00;;;;5033904;28;20458;-74
2021/12/20 01:23:15;;;;;;;4.60;2.33;;;7.80;1.00;9.10;101301.00;;;;5030858;28;20529;-75
2021/12/20 01:25:43;;;;;;;5.57;3.03;;;7.80;1.00;9.10;101311.00;;;;5032647;28;20548;-75
2021/12/20 01:28:12;;;;;;;4.63;3.20;;;7.80;1.00;9.10;101318.00;;;;5034556;28;20426;-74
2021/12/20 01:30:43;;;;;;;4.67;3.00;;;7.80;1.00;9.20;101322.00;;;;5018972;28;20446;-74
2021/12/20 01:33:12;;;;;;;4.33;2.87;;;7.80;1.00;9.20;101317.00;;;;5014651;28;20465;-72
2021/12/20 01:35:42;;;;;;;3.70;2.90;;;7.80;1.00;9.20;101308.00;;;;5014159;28;20480;-74
2021/12/20 01:38:10;;;;;;;4.87;2.80;;;7.80;1.00;9.20;101314.00;;;;5014175;28;20445;-74
2021/12/20 01:40:39;;;;;;;3.80;2.73;;;7.80;1.00;9.10;101308.00;;;;5018298;28;20461;-73
2021/12/20 01:43:11;;;;;;;4.80;3.13;;;7.70;1.00;9.10;101319.00;;;;5019716;28;20461;-74
2021/12/20 01:45:40;;;;;;;4.20;2.73;;;7.80;1.00;9.10;101314.00;;;;5014455;28;20490;-74
2021/12/20 01:48:12;;;;;;;3.90;2.80;;;7.80;1.00;9.10;101271.00;;;;5014388;28;20453;-73
2021/12/20 01:51:14;;;;;;;4.17;2.70;;;7.80;1.00;9.10;101279.00;;;;5012541;28;20462;-74
2021/12/20 01:53:41;;;;;;;5.43;2.80;;;7.80;1.00;9.10;101305.00;;;;5007952;28;21008;-73
2021/12/20 01:56:11;;;;;;;4.80;2.47;;;7.70;1.00;9.10;101304.00;;;;5012044;28;20566;-74
2021/12/20 01:58:39;;;;;;;6.13;2.80;;;7.80;1.00;9.10;101304.00;;;;4995534;28;20819;-73
2021/12/20 02:03:58;;;;;;;4.80;2.30;;;7.70;1.00;9.10;101312.00;;;;5004411;28;20463;-73
2021/12/20 02:06:32;;;;;;;5.07;2.70;;;7.70;1.00;9.10;101312.00;;;;5011329;28;20576;-74
2021/12/20 02:09:07;;;;;;;5.77;2.40;;;7.70;1.00;9.10;101315.00;;;;5012687;28;20465;-73
2021/12/20 02:11:36;;;;;;;4.10;2.20;;;7.70;1.00;9.10;101308.00;;;;5007563;28;20471;-75
2021/12/20 02:14:05;;;;;;;3.63;2.07;;;7.70;1.00;9.10;101309.00;;;;5007233;28;20473;-74
2021/12/20 02:16:35;;;;;;;5.37;2.20;;;7.70;1.00;9.10;101310.00;;;;5010535;28;20576;-74
2021/12/20 02:19:07;;;;;;;5.40;2.03;;;7.70;1.00;9.10;101313.00;;;;5011610;28;20453;-74
2021/12/20 02:21:37;;;;;;;4.80;2.03;;;7.80;1.00;9.10;101306.00;;;;5005432;28;20458;-74
2021/12/20 02:24:06;;;;;;;6.00;2.33;;;7.70;1.00;9.10;101310.00;;;;5010032;28;20489;-75
2021/12/20 02:26:36;;;;;;;7.40;2.77;;;7.70;1.00;9.00;101306.00;;;;5008324;28;20990;-74
2021/12/20 02:29:07;;;;;;;6.07;2.07;;;7.60;1.00;9.00;101298.00;;;;5011263;28;20459;-74
2021/12/20 02:37:26;;;;;;;5.97;2.23;;;7.60;1.00;8.90;101311.00;;;;5016802;28;20500;-75
2021/12/20 02:39:56;;;;;;;3.77;2.03;;;7.70;1.00;8.90;101307.00;;;;5010597;28;20465;-74
2021/12/20 02:42:30;;;;;;;5.80;2.43;;;7.70;1.00;8.90;101312.00;;;;5005522;28;20826;-74
2021/12/20 02:47:49;;;;;;;7.57;2.50;;;7.70;1.00;9.10;101313.00;;;;5001577;28;20459;-75
2021/12/20 02:50:18;;;;;;;4.03;2.30;;;7.70;1.00;9.10;101273.00;;;;5003635;28;20561;-75
2021/12/20 02:52:47;;;;;;;3.43;2.10;;;7.70;1.00;9.00;101306.00;;;;5025195;28;20901;-75
2021/12/20 02:55:15;;;;;;;4.17;2.37;;;7.70;1.00;9.00;101322.00;;;;5004224;28;20838;-74
2021/12/20 02:57:44;;;;;;;5.13;2.50;;;7.70;1.00;9.00;101323.00;;;;5012358;28;20446;-73
2021/12/20 03:00:13;;;;;;;5.50;2.00;;;7.70;1.00;9.00;101324.00;;;;5012225;28;20450;-74
2021/12/20 03:02:42;;;;;;;12.23;2.93;;;7.70;1.00;9.00;101327.00;;;;5012608;28;20465;-74
2021/12/20 03:05:12;;;;;;;7.93;2.43;;;7.70;1.00;8.90;101309.00;;;;5005397;28;21192;-74
2021/12/20 03:07:46;;;;;;;5.27;2.27;;;7.70;1.00;8.90;101314.00;;;;5010090;28;20465;-75
2021/12/20 03:10:18;;;;;;;6.03;2.53;;;7.70;1.00;8.90;101318.00;;;;5004594;28;20544;-75
2021/12/20 03:12:52;;;;;;;5.87;2.27;;;7.70;1.00;8.90;101324.00;;;;5006390;28;21013;-73
2021/12/20 03:15:23;;;;;;;6.80;2.73;;;7.70;1.00;8.90;101306.00;;;;5005814;28;20488;-74
2021/12/20 03:17:54;;;;;;;8.70;3.03;;;7.80;1.00;8.90;101320.00;;;;5010649;28;20454;-74
2021/12/20 03:20:24;;;;;;;5.60;2.37;;;7.60;1.00;8.90;101313.00;;;;5008632;28;20469;-74
2021/12/20 03:22:52;;;;;;;9.23;2.80;;;7.60;1.00;9.00;101317.00;;;;5010115;28;20458;-74
2021/12/20 03:25:22;;;;;;;5.70;2.23;;;7.50;1.00;8.90;101326.00;;;;5009802;28;20485;-74
2021/12/20 03:27:50;;;;;;;5.70;2.60;;;7.50;1.00;8.80;101329.00;;;;5011624;28;20465;-74
2021/12/20 03:30:18;;;;;;;5.70;2.90;;;7.50;1.00;8.80;101311.00;;;;5006533;28;20446;-74
2021/12/20 03:32:47;;;;;;;7.53;2.27;;;7.50;1.00;8.70;101324.00;;;;5007907;28;20458;-74
2021/12/20 03:35:15;;;;;;;4.33;2.50;;;7.50;1.00;8.70;101331.00;;;;5008752;28;21214;-74
2021/12/20 03:37:44;;;;;;;10.20;2.53;;;7.40;1.00;8.70;101321.00;;;;5009983;28;20455;-74
2021/12/20 03:40:13;;;;;;;5.37;2.20;;;7.40;1.00;8.70;101333.00;;;;5033274;28;20438;-77
2021/12/20 03:42:44;;;;;;;8.83;2.63;;;7.40;1.00;8.60;101320.00;;;;5024126;28;20452;-75
2021/12/20 03:45:15;;;;;;;5.90;2.30;;;7.40;1.00;8.70;101323.00;;;;5006114;28;20790;-74
2021/12/20 03:47:44;;;;;;;9.57;3.03;;;7.40;1.00;8.70;101322.00;;;;5009373;28;20467;-74
2021/12/20 03:50:15;;;;;;;7.03;2.23;;;7.40;1.00;8.70;101321.00;;;;5015357;28;20544;-74
2021/12/20 03:52:44;;;;;;;10.60;2.60;;;7.40;1.00;8.60;101332.00;;;;5010824;28;20453;-72
2021/12/20 03:55:14;;;;;;;6.33;2.67;;;7.40;1.00;8.60;101327.00;;;;5008381;28;20473;-73
2021/12/20 03:57:44;;;;;;;8.17;2.50;;;7.40;1.00;8.60;101326.00;;;;5013634;28;20461;-73
2021/12/20 04:00:15;;;;;;;9.97;2.97;;;7.30;1.00;8.50;101322.00;;;;5013131;28;20963;-74
2021/12/20 04:02:46;;;;;;;10.83;2.83;;;7.30;1.00;8.60;101314.00;;;;5010830;28;20437;-74
2021/12/20 04:05:16;;;;;;;8.50;2.93;;;7.30;1.00;8.60;101322.00;;;;5011605;28;20497;-74
2021/12/20 04:07:45;;;;;;;9.33;2.60;;;7.30;1.00;8.60;101329.00;;;;5005150;28;20477;-74
2021/12/20 04:10:14;;;;;;;14.60;3.10;;;7.30;1.00;8.60;101343.00;;;;5003651;28;20453;-74
2021/12/20 04:12:42;;;;;;;8.53;3.10;;;7.30;1.00;8.50;101347.00;;;;5011017;28;20454;-74
2021/12/20 04:15:12;;;;;;;12.17;3.80;;;7.30;1.00;8.50;101345.00;;;;5013128;28;20461;-74
2021/12/20 04:17:40;;;;;;;12.93;3.47;;;7.20;1.00;8.40;101342.00;;;;5013637;28;21223;-74
2021/12/20 04:20:10;;;;;;;11.13;3.43;;;7.20;1.00;8.40;101355.00;;;;5011972;28;20449;-73
2021/12/20 04:22:38;;;;;;;9.80;3.30;;;7.10;1.00;8.30;101328.00;;;;5022072;28;20454;-75
2021/12/20 04:25:08;;;;;;;13.63;3.90;;;7.10;1.00;8.30;101340.00;;;;5014105;28;20453;-75
2021/12/20 04:27:37;;;;;;;12.33;3.90;;;7.00;1.00;8.30;101339.00;;;;5015012;28;20469;-75
2021/12/20 04:30:10;;;;;;;12.23;4.03;;;7.00;1.00;8.20;101343.00;;;;5009981;28;20505;-74
2021/12/20 04:32:45;;;;;;;13.80;4.73;;;7.00;1.00;8.20;101345.00;;;;5011895;28;20985;-74
2021/12/20 04:35:16;;;;;;;20.77;4.47;;;7.00;1.00;8.20;101366.00;;;;5010341;28;20457;-74
2021/12/20 04:37:47;;;;;;;12.30;3.67;;;7.00;1.00;8.20;101343.00;;;;5016095;28;20450;-73
2021/12/20 04:40:19;;;;;;;10.77;3.80;;;7.00;1.00;8.20;101366.00;;;;5009926;28;20840;-74
2021/12/20 04:42:48;;;;;;;10.17;3.50;;;7.00;1.00;8.20;101358.00;;;;5017354;28;20970;-75
2021/12/20 04:45:17;;;;;;;14.10;3.90;;;7.00;1.00;8.20;101357.00;;;;5020199;28;20829;-74
2021/12/20 04:47:47;;;;;;;13.50;4.40;;;7.00;1.00;8.20;101376.00;;;;5023258;28;20488;-74
2021/12/20 04:50:16;;;;;;;14.93;4.10;;;7.00;1.00;8.30;101359.00;;;;5016825;28;20463;-73
2021/12/20 04:52:44;;;;;;;14.03;3.90;;;7.00;1.00;8.30;101375.00;;;;5020009;28;20544;-73
2021/12/20 04:55:13;;;;;;;20.20;4.70;;;7.00;1.00;8.30;101365.00;;;;5023153;28;20462;-74
2021/12/20 04:57:47;;;;;;;9.80;3.40;;;7.00;1.00;8.30;101377.00;;;;5011706;28;20808;-74
2021/12/20 05:00:19;;;;;;;11.67;3.57;;;7.00;1.00;8.30;101339.00;;;;5012351;28;20456;-74
2021/12/20 05:02:49;;;;;;;14.80;4.03;;;6.90;1.00;8.30;101360.00;;;;5011016;28;20975;-74
2021/12/20 05:05:19;;;;;;;18.43;4.90;;;6.90;1.00;8.20;101378.00;;;;5010525;28;20477;-74
2021/12/20 05:07:47;;;;;;;16.40;4.27;;;6.90;1.00;8.20;101374.00;;;;5011369;28;20473;-74
2021/12/20 05:10:26;;;;;;;17.00;4.03;;;6.90;1.00;8.10;101367.00;;;;5010683;28;20489;-74
2021/12/20 05:12:56;;;;;;;13.97;4.63;;;6.80;1.00;8.10;101371.00;;;;5007880;28;20544;-74
2021/12/20 05:15:25;;;;;;;10.90;4.70;;;6.80;1.00;8.10;101377.00;;;;5010158;28;20512;-74
2021/12/20 05:17:56;;;;;;;22.27;4.93;;;6.70;1.00;8.00;101370.00;;;;5011064;28;20458;-74
2021/12/20 05:20:26;;;;;;;13.47;4.80;;;6.70;1.00;8.00;101379.00;;;;5009580;28;20471;-74
2021/12/20 05:22:55;;;;;;;15.60;4.23;;;6.70;1.00;7.90;101380.00;;;;5007252;28;20450;-74
2021/12/20 05:25:24;;;;;;;13.63;4.17;;;6.60;1.00;7.90;101378.00;;;;5008566;28;20845;-75
2021/12/20 05:27:53;;;;;;;17.00;4.53;;;6.50;1.00;7.70;101368.00;;;;5008353;28;20457;-74
2021/12/20 05:30:22;;;;;;;11.73;3.90;;;6.40;1.00;7.60;101341.00;;;;5011341;28;20547;-74
2021/12/20 05:32:51;;;;;;;20.00;4.83;;;6.30;1.00;7.50;101370.00;;;;5011395;28;20446;-73
2021/12/20 05:35:20;;;;;;;24.07;5.03;;;6.20;1.00;7.30;101376.00;;;;5025145;28;20472;-73
2021/12/20 05:37:50;;;;;;;15.00;4.50;;;6.10;1.00;7.30;101376.00;;;;5027913;28;20480;-74
2021/12/20 05:40:20;;;;;;;15.50;4.30;;;6.00;1.00;7.20;101373.00;;;;5010005;28;20455;-74
2021/12/20 05:42:48;;;;;;;13.60;4.03;;;5.80;1.00;7.00;101336.00;;;;5012270;28;20552;-74
2021/12/20 05:45:17;;;;;;;15.50;4.77;;;5.90;1.00;7.00;101399.00;;;;5006776;28;20958;-74
2021/12/20 05:47:47;;;;;;;17.20;4.63;;;5.70;1.00;6.90;101396.00;;;;5012381;28;20470;-73
2021/12/20 05:50:20;;;;;;;16.53;4.30;;;5.60;1.00;6.80;101392.00;;;;5007781;28;20466;-73
2021/12/20 05:52:49;;;;;;;16.60;4.60;;;5.60;1.00;6.80;101376.00;;;;5010262;28;20469;-74
2021/12/20 05:55:18;;;;;;;26.33;6.57;;;5.60;1.00;6.70;101398.00;;;;5008505;28;20487;-73
2021/12/20 05:57:48;;;;;;;14.50;4.03;;;5.50;1.00;6.80;101370.00;;;;5013817;28;20469;-74
2021/12/20 06:00:20;;;;;;;14.80;4.10;;;5.50;1.00;6.70;101402.00;;;;5011530;28;20464;-74
2021/12/20 06:02:51;;;;;;;16.53;4.97;;;5.40;1.00;6.60;101383.00;;;;5015243;28;20460;-75
2021/12/20 06:05:22;;;;;;;19.90;5.43;;;5.30;1.00;6.60;101392.00;;;;5016080;28;20537;-73
2021/12/20 06:07:50;;;;;;;14.70;4.40;;;5.20;1.00;6.50;101406.00;;;;5026608;28;20493;-73
2021/12/20 06:10:19;;;;;;;14.60;4.73;;;5.10;1.00;6.40;101401.00;;;;5013355;28;20473;-73
2021/12/20 06:12:48;;;;;;;24.03;6.87;;;5.10;1.00;6.40;101386.00;;;;5010559;28;20522;-74
2021/12/20 06:15:17;;;;;;;17.23;5.90;;;5.00;1.00;6.30;101414.00;;;;5001327;28;20477;-74
2021/12/20 06:17:45;;;;;;;15.23;5.87;;;5.00;1.00;6.30;101410.00;;;;5007875;28;20484;-74
2021/12/20 06:20:15;;;;;;;15.70;5.33;;;4.90;1.00;6.20;101420.00;;;;5009914;28;20452;-74
2021/12/20 06:22:45;;;;;;;18.27;5.97;;;4.90;1.00;6.20;101428.00;;;;5006446;28;20462;-73
2021/12/20 06:25:14;;;;;;;18.37;6.73;;;4.90;1.00;6.10;101419.00;;;;5008681;28;20465;-74
2021/12/20 06:27:43;;;;;;;16.07;5.07;;;4.80;1.00;6.10;101438.00;;;;5009764;28;20485;-74
2021/12/20 06:30:13;;;;;;;18.47;5.40;;;4.80;1.00;6.00;101437.00;;;;5005626;28;20450;-74
2021/12/20 06:32:43;;;;;;;15.83;5.43;;;4.80;1.00;5.80;101430.00;;;;5009325;28;20465;-73
2021/12/20 06:35:32;;;;;;;15.90;4.30;;;4.70;1.00;6.00;101425.00;;;;5006284;28;21050;-74
2021/12/20 06:38:03;;;;;;;20.10;5.70;;;4.70;1.00;5.90;101437.00;;;;5010417;28;20963;-74
2021/12/20 06:40:34;;;;;;;17.70;5.30;;;4.70;1.00;5.90;101437.00;;;;5008575;28;20484;-76
2021/12/20 06:43:03;;;;;;;12.53;4.87;;;4.60;1.00;5.80;101419.00;;;;5005883;28;20453;-74
2021/12/20 06:45:33;;;;;;;13.83;6.23;;;4.50;1.00;5.80;101426.00;;;;5009437;28;20505;-73
2021/12/20 06:48:01;;;;;;;24.10;5.63;;;4.50;1.00;5.70;101413.00;;;;5004435;28;20480;-74
2021/12/20 06:50:30;;;;;;;18.20;5.23;;;4.50;1.00;5.70;101383.00;;;;5016556;28;20460;-74
2021/12/20 06:53:00;;;;;;;18.07;4.67;;;4.40;1.00;5.70;101448.00;;;;5007489;28;20971;-74
2021/12/20 06:55:28;;;;;;;17.13;5.47;;;4.40;1.00;5.60;101447.00;;;;5006362;28;20544;-74
2021/12/20 06:57:57;;;;;;;14.27;4.80;;;4.40;1.00;5.60;101453.00;;;;5006423;28;20463;-75
2021/12/20 07:00:26;;;;;;;18.50;5.53;;;4.40;1.00;5.60;101448.00;;;;5005449;28;20451;-74
2021/12/20 07:02:55;;;;;;;14.67;5.70;;;4.30;1.00;5.60;101453.00;;;;5011429;28;20541;-74
2021/12/20 07:05:24;;;;;;;16.87;5.33;;;4.30;1.00;5.50;101458.00;;;;5031227;28;20461;-76
2021/12/20 07:07:53;;;;;;;21.70;6.00;;;4.20;1.00;5.40;101452.00;;;;5034325;28;20466;-76
2021/12/20 07:10:23;;;;;;;17.83;5.30;;;4.20;1.00;5.40;101443.00;;;;5036480;28;20458;-74
2021/12/20 07:12:52;;;;;;;14.83;5.40;;;4.20;1.00;5.40;101454.00;;;;5019094;28;20468;-74
2021/12/20 07:15:21;;;;;;;25.23;6.50;;;4.10;1.00;5.30;101456.00;;;;5012260;28;20482;-74
2021/12/20 07:17:49;;;;;;;18.73;6.43;;;4.10;1.00;5.30;101461.00;;;;5011214;28;21017;-74
2021/12/20 07:20:18;;;;;;;23.90;6.07;;;4.00;1.00;5.30;101470.00;;;;5013422;28;20461;-74
2021/12/20 07:22:46;;;;;;;18.30;6.60;;;4.00;1.00;5.20;101455.00;;;;5014990;28;20457;-74
2021/12/20 07:25:14;;;;;;;24.80;7.13;;;4.00;1.00;5.20;101484.00;;;;5007679;28;20458;-75
2021/12/20 07:27:48;;;;;;;17.90;6.07;;;4.00;1.00;5.20;101472.00;;;;5008932;28;20532;-74
2021/12/20 07:30:17;;;;;;;16.60;5.37;;;3.90;1.00;5.20;101468.00;;;;5018182;28;20868;-73
2021/12/20 07:32:48;;;;;;;28.50;6.80;;;3.90;1.00;5.20;101482.00;;;;5013068;28;20810;-74
2021/12/20 07:35:17;;;;;;;21.67;6.90;;;3.90;1.00;5.10;101488.00;;;;5013258;28;20472;-74
2021/12/20 07:37:47;;;;;;;22.17;5.90;;;3.80;1.00;5.20;101477.00;;;;5013259;28;20477;-75
2021/12/20 07:40:16;;;;;;;17.97;5.57;;;3.80;1.00;5.10;101497.00;;;;5011101;28;20449;-75
2021/12/20 07:42:45;;;;;;;15.50;5.53;;;3.90;1.00;5.00;101494.00;;;;5008927;28;20457;-75
2021/12/20 07:45:14;;;;;;;20.37;6.27;;;3.80;1.00;5.10;101493.00;;;;5006754;28;20469;-75
2021/12/20 07:47:48;;;;;;;14.80;6.17;;;3.80;1.00;5.00;101490.00;;;;5004664;28;20528;-75
2021/12/20 07:50:17;;;;;;;20.30;6.70;;;3.80;1.00;5.10;101505.00;;;;5009000;28;20467;-75
2021/12/20 07:52:46;;;;;;;25.67;7.30;;;3.80;1.00;5.10;101496.00;;;;5011591;28;20513;-75
2021/12/20 07:55:15;;;;;;;21.20;6.60;;;3.80;1.00;5.10;101503.00;;;;5012847;28;20457;-75
2021/12/20 07:57:43;;;;;;;19.10;6.57;;;3.80;1.00;5.20;101499.00;;;;5014391;28;20461;-74
2021/12/20 08:00:15;;;;;;;20.50;7.73;;;3.90;1.00;5.20;101509.00;;;;5007446;28;20454;-75
2021/12/20 08:02:44;;;;;;;24.53;6.50;;;3.90;1.00;5.20;101484.00;;;;5009112;28;20464;-75
2021/12/20 08:05:14;;;;;;;17.23;5.87;;;3.90;1.00;5.20;101491.00;;;;5012740;28;20573;-74
2021/12/20 08:07:45;;;;;;;16.77;6.53;;;3.90;1.00;5.20;101503.00;;;;5010078;28;20470;-74
2021/12/20 08:10:14;;;;;;;17.33;6.07;;;3.90;1.00;5.20;101503.00;;;;5009336;28;20449;-74
2021/12/20 08:12:43;;;;;;;24.13;6.33;;;3.90;1.00;5.30;101489.00;;;;5011605;28;20458;-75
2021/12/20 08:15:13;;;;;;;15.63;5.53;;;4.00;1.00;5.30;101491.00;;;;5008198;28;20449;-74
2021/12/20 08:17:41;;;;;;;17.87;5.87;;;4.10;1.00;5.30;101498.00;;;;5012599;28;20461;-74
2021/12/20 08:20:12;;;;;;;15.93;6.20;;;4.10;1.00;5.30;101489.00;;;;5013796;28;20465;-75
2021/12/20 08:22:45;;;;;;;19.30;7.20;;;4.10;1.00;5.40;101496.00;;;;5014794;28;20469;-75
2021/12/20 08:25:15;;;;;;;19.00;5.73;;;4.10;1.00;5.40;101493.00;;;;5013858;28;20594;-73
2021/12/20 08:27:44;;;;;;;23.80;6.40;;;4.10;1.00;5.40;101514.00;;;;5013827;28;20474;-74
2021/12/20 08:30:14;;;;;;;18.83;6.20;;;4.10;1.00;5.50;101498.00;;;;5011499;28;20454;-75
2021/12/20 08:32:43;;;;;;;16.97;5.80;;;4.20;1.00;5.60;101502.00;;;;5009337;28;21144;-75
2021/12/20 08:35:13;;;;;;;20.83;6.70;;;4.30;1.00;5.70;101508.00;;;;5013333;28;20515;-74
2021/12/20 08:37:42;;;;;;;19.30;6.47;;;4.40;1.00;5.70;101518.00;;;;5014511;28;20445;-75
2021/12/20 08:40:15;;;;;;;20.50;5.93;;;4.50;1.00;5.80;101507.00;;;;5008240;28;20552;-74
2021/12/20 08:42:45;;;;;;;18.63;5.77;;;4.50;1.00;5.80;101515.00;;;;5007204;28;20457;-74
2021/12/20 08:45:17;;;;;;;21.17;6.73;;;4.60;1.00;5.90;101526.00;;;;5009538;28;20823;-74
2021/12/20 08:47:51;;;;;;;17.17;6.30;;;4.60;1.00;5.80;101471.00;;;;5012126;28;20453;-74
2021/12/20 08:50:22;;;;;;;22.70;6.43;;;4.60;1.00;5.90;101506.00;;;;5010005;28;20450;-75
2021/12/20 08:52:50;;;;;;;14.53;5.87;;;4.70;1.00;5.90;101528.00;;;;5010958;28;20466;-74
2021/12/20 08:55:19;;;;;;;15.73;5.70;;;4.80;1.00;5.70;101521.00;;;;5012038;28;21033;-75
2021/12/20 08:57:48;;;;;;;16.50;6.10;;;4.80;1.00;5.80;101468.00;;;;5013079;28;20462;-74
2021/12/20 09:00:20;;;;;;;19.17;6.07;;;4.80;1.00;6.00;101534.00;;;;5014171;28;20466;-75
2021/12/20 09:02:50;;;;;;;21.80;6.30;;;4.80;1.00;5.90;101521.00;;;;5012323;28;20861;-75
2021/12/20 09:05:20;;;;;;;15.00;5.63;;;4.80;1.00;6.00;101534.00;;;;5002152;28;20485;-73
2021/12/20 09:07:48;;;;;;;21.03;6.07;;;4.90;1.00;6.00;101525.00;;;;5009372;28;20466;-73
2021/12/20 09:10:18;;;;;;;15.50;5.43;;;4.90;1.00;6.10;101524.00;;;;5004922;28;20484;-74
2021/12/20 09:12:47;;;;;;;18.50;6.13;;;4.90;1.00;6.20;101539.00;;;;5009345;28;20823;-76
2021/12/20 09:15:18;;;;;;;17.90;6.00;;;5.00;1.00;6.20;101529.00;;;;5012553;28;20458;-75
2021/12/20 09:17:49;;;;;;;13.13;5.67;;;5.00;1.00;6.30;101547.00;;;;5020569;28;20472;-74
2021/12/20 09:20:21;;;;;;;17.60;5.90;;;5.10;1.00;6.40;101557.00;;;;5018245;28;20462;-74
2021/12/20 09:22:51;;;;;;;18.20;5.67;;;5.10;1.00;6.10;101546.00;;;;5022799;28;20464;-73
2021/12/20 09:25:23;;;;;;;24.20;6.30;;;5.10;1.00;6.40;101554.00;;;;5005426;28;20511;-73
2021/12/20 09:27:54;;;;;;;16.20;6.00;;;5.20;1.00;6.50;101548.00;;;;5015648;28;20468;-74
2021/12/20 09:30:27;;;;;;;16.23;6.10;;;5.30;1.00;6.50;101559.00;;;;5014921;28;20473;-74
2021/12/20 09:33:00;;;;;;;18.73;6.10;;;5.30;1.00;6.60;101540.00;;;;5013856;28;20508;-74
2021/12/20 09:35:29;;;;;;;24.27;6.33;;;5.30;1.00;6.60;101556.00;;;;5013033;28;20481;-74
2021/12/20 09:37:57;;;;;;;20.00;6.00;;;5.40;1.00;6.60;101545.00;;;;5026455;28;20465;-73
2021/12/20 09:40:33;;;;;;;17.10;5.70;;;5.50;1.00;6.70;101555.00;;;;5024047;28;20458;-74
2021/12/20 09:43:06;;;;;;;18.73;6.03;;;5.60;1.00;6.70;101560.00;;;;5016481;28;20462;-73
2021/12/20 09:45:36;;;;;;;19.13;5.60;;;5.70;1.00;6.70;101565.00;;;;5012886;28;20560;-73
2021/12/20 09:48:05;;;;;;;15.50;6.00;;;5.50;1.00;6.70;101521.00;;;;5012414;28;20567;-74
2021/12/20 09:50:34;;;;;;;17.23;5.70;;;5.60;1.00;6.80;101571.00;;;;5002894;28;20483;-74
2021/12/20 09:53:07;;;;;;;15.93;5.30;;;5.70;1.00;6.70;101579.00;;;;5011196;28;20462;-74
2021/12/20 09:55:37;;;;;;;14.77;5.97;;;5.50;1.00;6.80;101579.00;;;;5011361;28;20504;-74
2021/12/20 09:58:06;;;;;;;18.00;6.43;;;5.60;1.00;6.90;101562.00;;;;5005777;28;20457;-76
2021/12/20 10:00:37;;;;;;;15.87;5.60;;;5.70;1.00;6.90;101566.00;;;;5007847;28;20454;-74
2021/12/20 10:03:05;;;;;;;18.17;5.30;;;5.80;1.00;7.00;101542.00;;;;5015630;28;20464;-74
2021/12/20 10:05:36;;;;;;;17.40;5.53;;;5.90;1.00;6.90;101564.00;;;;5007589;28;20473;-74
2021/12/20 10:08:13;;;;;;;19.53;5.90;;;5.80;1.00;6.90;101558.00;;;;5005888;28;20564;-73
2021/12/20 10:10:44;;;;;;;17.53;4.97;;;5.80;1.00;7.00;101570.00;;;;5009840;28;20485;-74
2021/12/20 10:13:24;;;;;;;14.33;5.23;;;6.00;1.00;7.00;101568.00;;;;5011963;28;20856;-73
2021/12/20 10:15:56;;;;;;;16.90;5.47;;;6.10;1.00;7.10;101566.00;;;;5007495;28;20473;-75
2021/12/20 10:18:25;;;;;;;19.00;5.33;;;6.10;1.00;7.00;101548.00;;;;5010593;28;21025;-74
2021/12/20 10:20:57;;;;;;;21.83;5.67;;;6.00;1.00;7.10;101577.00;;;;5012663;28;20469;-74
2021/12/20 10:23:29;;;;;;;11.80;5.27;;;6.10;1.00;7.20;101567.00;;;;5009830;28;20461;-73
2021/12/20 10:26:04;;;;;;;15.03;5.23;;;6.20;1.00;7.20;101556.00;;;;5009079;28;20512;-73
2021/12/20 10:28:36;;;;;;;16.07;5.20;;;6.20;1.00;7.30;101535.00;;;;5011801;28;20476;-74
2021/12/20 10:31:08;;;;;;;14.50;5.70;;;6.20;1.00;7.40;101559.00;;;;5011915;28;20461;-74
2021/12/20 10:33:38;;;;;;;15.57;5.33;;;6.30;1.00;7.30;101552.00;;;;5003716;28;20446;-73
2021/12/20 10:36:10;;;;;;;15.40;5.43;;;6.30;1.00;7.40;101546.00;;;;5008165;28;20937;-74
2021/12/20 10:38:42;;;;;;;16.77;5.37;;;6.30;1.00;7.40;101538.00;;;;5007559;28;20464;-73
2021/12/20 10:41:14;;;;;;;13.00;4.77;;;6.20;1.00;7.40;101561.00;;;;5002066;28;21031;-74
2021/12/20 10:43:50;;;;;;;16.63;4.90;;;6.20;1.00;7.40;101549.00;;;;5009602;28;20462;-73
2021/12/20 10:46:23;;;;;;;18.73;5.73;;;6.20;1.00;7.40;101545.00;;;;5008578;28;20488;-74
2021/12/20 10:48:59;;;;;;;14.00;5.37;;;6.30;1.00;7.60;101543.00;;;;5006622;28;20503;-74
2021/12/20 10:51:30;;;;;;;13.93;5.67;;;6.40;1.00;7.50;101534.00;;;;5000757;28;20461;-74
2021/12/20 10:54:02;;;;;;;16.90;5.47;;;6.40;1.00;7.60;101539.00;;;;5001751;28;20462;-75
2021/12/20 10:56:34;;;;;;;17.03;5.53;;;6.50;1.00;7.70;101543.00;;;;5021620;28;20489;-74
2021/12/20 10:59:10;;;;;;;12.90;4.93;;;6.70;1.00;7.80;101538.00;;;;5015008;28;20453;-74
2021/12/20 11:02:15;;;;;;;10.43;4.50;;;6.80;1.00;7.90;101544.00;;;;5017066;28;20450;-74
2021/12/20 11:04:45;;;;;;;15.57;6.00;;;6.80;1.00;8.00;101540.00;;;;5017867;28;20473;-74
2021/12/20 11:10:10;;;;;;;9.90;3.60;;;6.80;1.00;7.80;101503.00;;;;5029064;28;20493;-75
2021/12/20 11:12:46;;;;;;;10.57;3.97;;;6.80;1.00;7.90;101530.00;;;;5014057;28;20453;-75
2021/12/20 11:15:15;;;;;;;9.97;4.23;;;6.90;1.00;7.70;101499.00;;;;5016809;28;20461;-75
2021/12/20 11:17:46;;;;;;;14.17;4.10;;;6.60;1.00;7.70;101516.00;;;;5016555;28;20464;-76
2021/12/20 11:20:20;;;;;;;14.10;4.27;;;6.60;1.00;7.70;101514.00;;;;5010005;28;21021;-75
2021/12/20 11:22:48;;;;;;;11.50;3.90;;;6.80;1.00;7.70;101514.00;;;;5012850;28;20480;-75
2021/12/20 11:25:17;;;;;;;6.90;4.03;;;6.70;1.00;7.90;101529.00;;;;5017554;28;20455;-74
2021/12/20 11:27:52;;;;;;;16.73;4.43;;;6.80;1.00;8.00;101533.00;;;;5010532;28;20988;-75
2021/12/20 11:30:24;;;;;;;13.07;4.17;;;7.00;1.00;8.10;101531.00;;;;5007607;28;20511;-75
2021/12/20 11:32:54;;;;;;;17.87;4.57;;;7.10;1.00;8.00;101517.00;;;;5014291;28;21033;-76
2021/12/20 11:35:26;;;;;;;9.43;3.80;;;7.00;1.00;8.00;101527.00;;;;5015341;28;20539;-75